createdAt,value
2017-11-26T00:04:41.951Z,100620
2017-11-26T00:09:43.478Z,100622
2017-11-26T00:14:45.111Z,100650
2017-11-26T00:19:46.672Z,100650
2017-11-26T00:24:48.255Z,100648
2017-11-26T00:29:49.761Z,100654
2017-11-26T00:34:51.347Z,100649
2017-11-26T00:39:52.880Z,100657
2017-11-26T00:44:54.438Z,100646
2017-11-26T00:49:56.744Z,100657
2017-11-26T00:54:58.388Z,100653
2017-11-26T01:00:00.646Z,100636
2017-11-26T01:05:02.192Z,100640
2017-11-26T01:10:03.722Z,100647
2017-11-26T01:15:05.291Z,100658
2017-11-26T01:20:06.820Z,100660
2017-11-26T01:25:08.342Z,100661
2017-11-26T01:30:09.859Z,100661
2017-11-26T01:35:11.368Z,100670
2017-11-26T01:40:12.946Z,100671
2017-11-26T01:45:14.489Z,100686
2017-11-26T01:50:16.783Z,100689
2017-11-26T01:55:18.303Z,100689
2017-11-26T02:00:19.837Z,100691
2017-11-26T02:05:21.329Z,100678
2017-11-26T02:10:22.849Z,100698
2017-11-26T02:15:24.373Z,100697
2017-11-26T02:20:25.908Z,100700
2017-11-26T02:25:27.405Z,100696
2017-11-26T02:30:28.942Z,100698
2017-11-26T02:51:24.844Z,100714
2017-11-26T02:56:27.241Z,100713
2017-11-26T03:01:28.774Z,100709
2017-11-26T03:06:30.298Z,100703
2017-11-26T03:11:31.802Z,100704
2017-11-26T03:16:33.346Z,100714
2017-11-26T03:21:34.990Z,100719
2017-11-26T03:26:36.491Z,100708
2017-11-26T03:31:38.020Z,100718
2017-11-26T03:36:39.536Z,100720
2017-11-26T03:41:41.042Z,100726
2017-11-26T03:46:43.302Z,100730
2017-11-26T03:51:44.818Z,100723
2017-11-26T03:56:46.305Z,100736
2017-11-26T04:01:54.751Z,100748
2017-11-26T04:06:56.223Z,100745
2017-11-26T04:11:57.715Z,100753
2017-11-26T04:16:59.934Z,100759
2017-11-26T04:22:01.410Z,100755
2017-11-26T04:27:02.905Z,100746
2017-11-26T04:32:04.422Z,100738
2017-11-26T04:37:06.043Z,100736
2017-11-26T04:42:07.707Z,100738
2017-11-26T04:47:09.331Z,100743
2017-11-26T04:52:10.874Z,100755
2017-11-26T04:57:13.110Z,100752
2017-11-26T05:02:14.601Z,100757
2017-11-26T05:07:16.147Z,100758
2017-11-26T05:12:17.654Z,100761
2017-11-26T05:17:19.897Z,100769
2017-11-26T05:22:21.371Z,100779
2017-11-26T05:27:22.889Z,100777
2017-11-26T05:32:24.379Z,100781
2017-11-26T05:37:25.877Z,100785
2017-11-26T05:42:27.382Z,100788
2017-11-26T05:47:29.875Z,100787
2017-11-26T05:52:31.390Z,100792
2017-11-26T05:57:32.901Z,100804
2017-11-26T06:02:35.126Z,100811
2017-11-26T06:07:36.635Z,100818
2017-11-26T06:12:38.195Z,100821
2017-11-26T06:17:39.726Z,100821
2017-11-26T06:22:41.231Z,100817
2017-11-26T06:27:42.740Z,100816
2017-11-26T06:32:44.255Z,100814
2017-11-26T06:37:45.762Z,100817
2017-11-26T06:42:47.286Z,100826
2017-11-26T06:47:48.875Z,100817
2017-11-26T06:52:51.148Z,100825
2017-11-26T06:57:52.831Z,100822
2017-11-26T07:02:55.139Z,100830
2017-11-26T07:07:56.674Z,100845
2017-11-26T07:12:58.215Z,100849
2017-11-26T07:17:59.765Z,100854
2017-11-26T07:23:01.520Z,100850
2017-11-26T07:28:03.055Z,100853
2017-11-26T07:33:04.562Z,100852
2017-11-26T07:38:06.090Z,100846
2017-11-26T07:43:07.632Z,100823
2017-11-26T07:48:09.173Z,100844
2017-11-26T07:53:10.682Z,100858
2017-11-26T07:58:12.195Z,100866
2017-11-26T08:03:13.742Z,100868
2017-11-26T08:08:16.020Z,100863
2017-11-26T08:13:18.291Z,100866
2017-11-26T08:18:19.834Z,100865
2017-11-26T08:23:21.341Z,100865
2017-11-26T08:28:23.630Z,100869
2017-11-26T08:33:25.198Z,100871
2017-11-26T08:38:27.476Z,100869
2017-11-26T08:43:30.195Z,100882
2017-11-26T08:48:31.709Z,100864
2017-11-26T08:53:33.312Z,100862
2017-11-26T08:58:35.588Z,100883
2017-11-26T09:03:37.869Z,100889
2017-11-26T09:08:51.137Z,100881
2017-11-26T09:13:52.690Z,100891
2017-11-26T09:18:54.220Z,100893
2017-11-26T09:23:55.731Z,100898
2017-11-26T09:28:57.968Z,100888
2017-11-26T09:33:59.647Z,100897
2017-11-26T09:39:01.198Z,100902
2017-11-26T09:44:09.700Z,100906
2017-11-26T09:49:11.262Z,100913
2017-11-26T09:54:12.809Z,100917
2017-11-26T09:59:15.072Z,100905
2017-11-26T10:04:16.630Z,100907
2017-11-26T10:09:18.176Z,100910
2017-11-26T10:14:19.768Z,100904
2017-11-26T10:19:21.325Z,100911
2017-11-26T10:24:22.899Z,100919
2017-11-26T10:29:24.740Z,100918
2017-11-26T10:34:26.392Z,100923
2017-11-26T10:39:27.968Z,100929
2017-11-26T10:44:29.541Z,100926
2017-11-26T10:49:31.113Z,100918
2017-11-26T10:54:32.671Z,100919
2017-11-26T10:59:34.320Z,100922
2017-11-26T11:04:35.909Z,100925
2017-11-26T11:09:38.181Z,100928
2017-11-26T11:14:40.442Z,100926
2017-11-26T11:19:41.990Z,100927
2017-11-26T11:24:43.611Z,100928
2017-11-26T11:29:45.300Z,100929
2017-11-26T11:34:46.856Z,100933
2017-11-26T11:39:48.417Z,100927
2017-11-26T11:44:50.732Z,100926
2017-11-26T11:49:52.307Z,100925
2017-11-26T11:54:53.847Z,100930
2017-11-26T11:59:55.329Z,100931
2017-11-26T12:04:56.854Z,100931
2017-11-26T12:09:59.116Z,100926
2017-11-26T12:15:00.639Z,100933
2017-11-26T12:20:02.211Z,100931
2017-11-26T12:25:03.827Z,100940
2017-11-26T12:30:05.383Z,100950
2017-11-26T12:35:06.972Z,100952
2017-11-26T12:40:08.464Z,100954
2017-11-26T12:45:10.754Z,100958
2017-11-26T12:50:12.318Z,100960
2017-11-26T12:55:13.906Z,100952
2017-11-26T13:00:15.594Z,100948
2017-11-26T13:05:17.290Z,100942
2017-11-26T13:10:18.823Z,100940
2017-11-26T13:15:20.307Z,100942
2017-11-26T13:20:21.853Z,100942
2017-11-26T13:25:23.447Z,100948
2017-11-26T13:30:24.926Z,100946
2017-11-26T13:35:26.511Z,100950
2017-11-26T13:40:28.249Z,100945
2017-11-26T13:45:29.812Z,100936
2017-11-26T13:50:31.338Z,100944
2017-11-26T13:55:32.927Z,100935
2017-11-26T14:00:34.462Z,100938
2017-11-26T14:05:36.753Z,100936
2017-11-26T14:10:39.038Z,100940
2017-11-26T14:15:41.387Z,100941
2017-11-26T14:20:42.904Z,100937
2017-11-26T14:25:44.439Z,100938
2017-11-26T14:30:45.976Z,100933
2017-11-26T14:35:47.541Z,100944
2017-11-26T14:40:49.024Z,100945
2017-11-26T14:45:50.582Z,100938
2017-11-26T14:50:52.387Z,100926
2017-11-26T14:55:53.852Z,100946
2017-11-26T15:00:56.127Z,100946
2017-11-26T15:05:57.726Z,100956
2017-11-26T15:10:59.283Z,100959
2017-11-26T15:16:01.583Z,100969
2017-11-26T15:21:03.182Z,100981
2017-11-26T15:26:04.702Z,100984
2017-11-26T15:31:06.483Z,100987
2017-11-26T15:36:08.020Z,100993
2017-11-26T15:41:09.589Z,101000
2017-11-26T15:46:11.117Z,101007
2017-11-26T15:56:20.889Z,101005
2017-11-26T16:01:22.417Z,101010
2017-11-26T16:06:23.960Z,101020
2017-11-26T16:11:25.649Z,101024
2017-11-26T16:16:27.164Z,101022
2017-11-26T16:21:28.695Z,101023
2017-11-26T16:26:30.396Z,101027
2017-11-26T16:31:31.903Z,101035
2017-11-26T16:36:33.522Z,101038
2017-11-26T16:41:35.172Z,101038
2017-11-26T16:46:37.490Z,101041
2017-11-26T16:51:39.095Z,101047
2017-11-26T16:56:40.556Z,101038
2017-11-26T17:01:42.092Z,101032
2017-11-26T17:06:43.631Z,101027
2017-11-26T17:11:45.932Z,101036
2017-11-26T17:16:47.495Z,101030
2017-11-26T17:21:49.036Z,101045
2017-11-26T17:26:50.643Z,101043
2017-11-26T17:31:52.175Z,101053
2017-11-26T17:36:54.530Z,101059
2017-11-26T17:41:56.110Z,101064
2017-11-26T17:46:57.819Z,101064
2017-11-26T17:51:59.433Z,101074
2017-11-26T17:57:00.992Z,101075
2017-11-26T18:02:02.540Z,101080
2017-11-26T18:07:04.167Z,101085
2017-11-26T18:12:06.430Z,101086
2017-11-26T18:17:08.038Z,101096
2017-11-26T18:22:09.617Z,101103
2017-11-26T18:27:11.310Z,101109
2017-11-26T18:32:13.939Z,101118
2017-11-26T18:37:15.639Z,101110
2017-11-26T18:42:17.234Z,101116
2017-11-26T18:47:18.745Z,101117
2017-11-26T18:52:20.352Z,101131
2017-11-26T18:57:21.995Z,101129
2017-11-26T19:02:24.311Z,101132
2017-11-26T19:07:25.983Z,101127
2017-11-26T19:12:27.594Z,101137
2017-11-26T19:17:29.231Z,101136
2017-11-26T19:22:30.947Z,101141
2017-11-26T19:27:32.490Z,101141
2017-11-26T19:32:34.049Z,101151
2017-11-26T19:37:35.649Z,101146
2017-11-26T19:42:37.435Z,101142
2017-11-26T19:47:39.215Z,101148
2017-11-26T19:52:40.763Z,101145
2017-11-26T19:57:42.440Z,101146
2017-11-26T20:02:44.008Z,101160
2017-11-26T20:07:45.608Z,101157
2017-11-26T20:12:47.216Z,101152
2017-11-26T20:17:48.756Z,101151
2017-11-26T20:22:50.249Z,101156
2017-11-26T20:27:51.907Z,101161
2017-11-26T20:32:53.434Z,101153
2017-11-26T20:37:55.712Z,101150
2017-11-26T20:42:57.992Z,101154
2017-11-26T20:48:00.394Z,101155
2017-11-26T20:53:01.981Z,101152
2017-11-26T20:58:03.650Z,101147
2017-11-26T21:03:05.226Z,101156
2017-11-26T21:08:07.495Z,101146
2017-11-26T21:13:09.123Z,101162
2017-11-26T21:18:10.712Z,101162
2017-11-26T21:23:13.023Z,101155
2017-11-26T21:28:14.641Z,101153
2017-11-26T21:33:16.205Z,101175
2017-11-26T21:38:17.788Z,101161
2017-11-26T21:43:19.458Z,101158
2017-11-26T21:48:21.044Z,101155
2017-11-26T21:53:22.598Z,101155
2017-11-26T21:58:24.147Z,101138
2017-11-26T22:03:25.769Z,101149
2017-11-26T22:08:27.394Z,101144
2017-11-26T22:13:29.003Z,101134
2017-11-26T22:18:30.557Z,101139
2017-11-26T22:23:32.848Z,101142
2017-11-26T22:28:35.134Z,101142
2017-11-26T22:33:37.424Z,101150
2017-11-26T22:38:38.991Z,101147
2017-11-26T22:43:41.252Z,101146
2017-11-26T22:48:42.720Z,101149
2017-11-26T22:53:44.246Z,101144
2017-11-26T22:58:45.792Z,101144
2017-11-26T23:03:47.332Z,101143
2017-11-26T23:08:49.791Z,101141
2017-11-26T23:13:51.298Z,101138
2017-11-26T23:18:53.596Z,101134
2017-11-26T23:23:55.209Z,101130
2017-11-26T23:28:56.737Z,101144
2017-11-26T23:33:58.247Z,101130
2017-11-26T23:38:59.765Z,101133
2017-11-26T23:44:01.282Z,101138
2017-11-26T23:49:02.803Z,101146
2017-11-26T23:54:04.310Z,101141
2017-11-26T23:59:05.870Z,101124
